createdAt,value
2019-06-04T00:02:11.122Z,20.46
2019-06-04T00:04:42.287Z,20.58
2019-06-04T00:07:13.483Z,20.54
2019-06-04T00:09:44.619Z,20.23
2019-06-04T00:12:16.682Z,20.27
2019-06-04T00:14:47.905Z,20.35
2019-06-04T00:17:19.067Z,20.29
2019-06-04T00:19:50.234Z,20.33
2019-06-04T00:22:21.370Z,20.36
2019-06-04T00:24:52.489Z,20.28
2019-06-04T00:27:23.723Z,20.46
2019-06-04T00:29:56.042Z,20.35
2019-06-04T00:32:27.214Z,20.20
2019-06-04T00:34:58.403Z,20.22
2019-06-04T00:37:29.868Z,20.49
2019-06-04T00:40:02.770Z,20.23
2019-06-04T00:42:34.003Z,20.39
2019-06-04T00:45:06.994Z,20.32
2019-06-04T00:47:38.143Z,20.41
2019-06-04T00:50:09.927Z,20.44
2019-06-04T00:52:41.119Z,20.44
2019-06-04T00:55:30.801Z,20.26
2019-06-04T00:58:04.913Z,20.22
2019-06-04T01:00:40.028Z,20.08
2019-06-04T01:03:11.363Z,20.26
2019-06-04T01:05:42.676Z,20.16
2019-06-04T01:08:20.951Z,20.04
2019-06-04T01:10:46.881Z,19.97
2019-06-04T01:13:18.184Z,20.11
2019-06-04T01:15:49.369Z,19.97
2019-06-04T01:18:20.491Z,19.85
2019-06-04T01:20:51.714Z,20.01
2019-06-04T01:23:22.909Z,19.94
2019-06-04T01:25:54.901Z,19.95
2019-06-04T01:28:26.131Z,19.95
2019-06-04T01:30:57.238Z,20.04
2019-06-04T01:33:39.138Z,19.94
2019-06-04T01:36:02.295Z,19.87
2019-06-04T01:38:33.600Z,19.84
2019-06-04T01:41:05.067Z,19.49
2019-06-04T01:43:36.444Z,19.56
2019-06-04T01:46:07.890Z,19.71
2019-06-04T01:48:39.278Z,19.64
2019-06-04T01:51:10.541Z,19.54
2019-06-04T01:53:41.711Z,19.58
2019-06-04T01:56:13.191Z,19.59
2019-06-04T01:58:44.513Z,19.50
2019-06-04T02:01:15.733Z,19.35
2019-06-04T02:03:47.041Z,19.57
2019-06-04T02:06:18.278Z,19.35
2019-06-04T02:08:49.431Z,19.08
2019-06-04T02:11:20.644Z,19.09
2019-06-04T02:13:51.843Z,19.04
2019-06-04T02:16:25.915Z,19.02
2019-06-04T02:18:55.659Z,19.08
2019-06-04T02:21:26.723Z,19.04
2019-06-04T02:23:57.846Z,19.20
2019-06-04T02:26:29.002Z,19.02
2019-06-04T02:29:00.285Z,18.86
2019-06-04T02:31:31.376Z,18.86
2019-06-04T02:34:02.498Z,18.86
2019-06-04T02:36:34.113Z,18.66
2019-06-04T02:39:07.997Z,18.67
2019-06-04T02:41:40.103Z,18.59
2019-06-04T02:44:11.519Z,18.15
2019-06-04T02:46:43.433Z,18.36
2019-06-04T02:49:16.153Z,18.53
2019-06-04T02:51:48.169Z,18.55
2019-06-04T02:54:21.172Z,18.83
2019-06-04T02:56:54.978Z,18.60
2019-06-04T02:59:26.836Z,18.62
2019-06-04T03:01:59.001Z,18.51
2019-06-04T03:04:30.125Z,18.38
2019-06-04T03:07:01.293Z,18.59
2019-06-04T03:09:32.479Z,18.55
2019-06-04T03:12:03.747Z,18.50
2019-06-04T03:14:34.899Z,18.57
2019-06-04T03:17:06.289Z,18.61
2019-06-04T03:19:37.431Z,18.70
2019-06-04T03:22:08.497Z,18.86
2019-06-04T03:24:39.665Z,18.80
2019-06-04T03:27:11.179Z,18.83
2019-06-04T03:29:43.508Z,18.79
2019-06-04T03:32:15.239Z,18.91
2019-06-04T03:34:47.478Z,18.81
2019-06-04T03:37:18.921Z,18.85
2019-06-04T03:39:51.396Z,18.77
2019-06-04T03:42:23.626Z,18.82
2019-06-04T03:44:54.722Z,19.11
2019-06-04T03:47:25.958Z,19.15
2019-06-04T03:49:57.091Z,19.24
2019-06-04T03:52:28.182Z,19.27
2019-06-04T03:54:59.361Z,19.04
2019-06-04T03:57:30.617Z,18.96
2019-06-04T04:00:01.883Z,19.15
2019-06-04T04:02:33.248Z,18.92
2019-06-04T04:05:04.518Z,19.15
2019-06-04T04:07:35.637Z,19.15
2019-06-04T04:10:07.779Z,19.17
2019-06-04T04:12:38.837Z,19.13
2019-06-04T04:15:10.661Z,19.27
2019-06-04T04:17:41.745Z,19.11
2019-06-04T04:20:13.106Z,18.99
2019-06-04T04:22:44.312Z,19.07
2019-06-04T04:25:15.451Z,19.22
2019-06-04T04:27:46.650Z,19.25
2019-06-04T04:30:57.291Z,19.29
2019-06-04T04:33:28.451Z,19.28
2019-06-04T04:35:59.583Z,19.28
2019-06-04T04:38:30.703Z,19.39
2019-06-04T04:41:01.781Z,19.59
2019-06-04T04:43:32.837Z,19.53
2019-06-04T04:46:03.907Z,19.33
2019-06-04T04:49:22.167Z,19.10
2019-06-04T04:51:54.313Z,19.34
2019-06-04T04:54:25.698Z,19.17
2019-06-04T04:56:57.146Z,19.09
2019-06-04T04:59:28.225Z,19.50
2019-06-04T05:01:59.780Z,19.70
2019-06-04T05:04:48.112Z,19.72
2019-06-04T05:07:04.725Z,19.53
2019-06-04T05:09:36.071Z,19.49
2019-06-04T05:12:08.605Z,19.53
2019-06-04T05:14:41.722Z,19.57
2019-06-04T05:17:14.513Z,19.70
2019-06-04T05:19:48.326Z,19.69
2019-06-04T05:22:19.551Z,19.86
2019-06-04T05:24:50.732Z,19.76
2019-06-04T05:27:21.861Z,19.53
2019-06-04T05:29:53.053Z,19.76
2019-06-04T05:32:24.161Z,19.73
2019-06-04T05:35:04.474Z,20.77
2019-06-04T05:37:29.206Z,22.02
2019-06-04T05:40:00.440Z,21.60
2019-06-04T05:42:32.765Z,21.32
2019-06-04T05:45:04.790Z,21.42
2019-06-04T05:47:36.130Z,21.15
2019-06-04T05:50:07.514Z,21.15
2019-06-04T05:52:38.578Z,20.83
2019-06-04T05:55:09.879Z,20.70
2019-06-04T05:57:41.049Z,20.71
2019-06-04T06:00:12.610Z,20.48
2019-06-04T06:02:43.707Z,20.70
2019-06-04T06:05:23.859Z,20.75
2019-06-04T06:07:47.709Z,20.95
2019-06-04T06:10:18.908Z,21.27
2019-06-04T06:12:50.113Z,21.56
2019-06-04T06:15:21.588Z,21.37
2019-06-04T06:17:52.914Z,21.92
2019-06-04T06:20:24.401Z,22.53
2019-06-04T06:23:09.956Z,23.66
2019-06-04T06:25:30.315Z,25.23
2019-06-04T06:28:01.452Z,25.64
2019-06-04T06:30:32.830Z,25.92
2019-06-04T06:33:04.230Z,26.18
2019-06-04T06:35:46.996Z,25.95
2019-06-04T06:38:08.567Z,26.45
2019-06-04T06:40:39.736Z,26.76
2019-06-04T06:43:10.933Z,26.78
2019-06-04T06:45:42.267Z,26.76
2019-06-04T06:48:13.557Z,25.70
2019-06-04T06:50:44.973Z,25.23
2019-06-04T06:53:16.157Z,24.90
2019-06-04T06:55:47.261Z,24.83
2019-06-04T06:58:18.521Z,25.22
2019-06-04T07:01:21.465Z,26.86
2019-06-04T07:03:52.874Z,26.70
2019-06-04T07:06:25.920Z,27.76
2019-06-04T07:08:58.303Z,28.96
2019-06-04T07:11:30.420Z,29.53
2019-06-04T07:14:03.824Z,29.59
2019-06-04T07:16:37.419Z,29.06
2019-06-04T07:19:08.898Z,28.98
2019-06-04T07:21:40.299Z,29.38
2019-06-04T07:24:11.647Z,29.44
2019-06-04T07:26:43.722Z,29.36
2019-06-04T07:29:14.993Z,29.44
2019-06-04T07:31:46.217Z,29.24
2019-06-04T07:34:17.444Z,30.14
2019-06-04T07:36:48.567Z,30.24
2019-06-04T07:39:19.929Z,29.77
2019-06-04T07:41:51.087Z,28.21
2019-06-04T07:44:22.272Z,27.63
2019-06-04T07:46:53.401Z,27.06
2019-06-04T07:49:24.494Z,26.91
2019-06-04T07:51:55.819Z,26.81
2019-06-04T07:54:27.070Z,26.10
2019-06-04T07:56:58.137Z,26.85
2019-06-04T07:59:29.337Z,26.26
2019-06-04T08:02:07.802Z,26.92
2019-06-04T08:04:35.135Z,26.87
2019-06-04T08:07:09.766Z,26.59
2019-06-04T08:09:40.250Z,26.40
2019-06-04T08:12:12.239Z,26.09
2019-06-04T08:14:47.724Z,26.19
2019-06-04T08:17:16.335Z,26.05
2019-06-04T08:19:47.365Z,26.56
2019-06-04T08:22:18.544Z,26.59
2019-06-04T08:24:49.762Z,26.76
2019-06-04T08:27:20.801Z,26.86
2019-06-04T08:29:52.030Z,26.62
2019-06-04T08:32:23.094Z,26.29
2019-06-04T08:34:54.216Z,26.19
2019-06-04T08:37:25.347Z,26.32
2019-06-04T08:39:56.620Z,26.67
2019-06-04T08:42:27.863Z,26.42
2019-06-04T08:45:02.456Z,26.23
2019-06-04T08:47:32.169Z,26.42
2019-06-04T08:50:03.368Z,26.23
2019-06-04T08:52:35.761Z,26.39
2019-06-04T08:55:07.260Z,26.11
2019-06-04T08:57:39.673Z,26.29
2019-06-04T09:00:11.897Z,26.44
2019-06-04T09:03:17.864Z,26.48
2019-06-04T09:05:50.383Z,26.53
2019-06-04T09:08:22.084Z,27.00
2019-06-04T09:10:53.764Z,26.72
2019-06-04T09:13:25.044Z,26.44
2019-06-04T09:15:56.646Z,26.76
2019-06-04T09:18:28.027Z,26.89
2019-06-04T09:20:59.276Z,26.69
2019-06-04T09:23:30.496Z,26.64
2019-06-04T09:26:02.813Z,27.00
2019-06-04T09:28:33.892Z,27.14
2019-06-04T09:31:05.120Z,27.26
2019-06-04T09:33:36.213Z,27.32
2019-06-04T09:36:07.360Z,27.13
2019-06-04T09:38:40.539Z,27.41
2019-06-04T09:41:11.542Z,27.07
2019-06-04T09:43:44.034Z,27.15
2019-06-04T09:46:15.545Z,27.01
2019-06-04T09:48:48.286Z,26.87
2019-06-04T09:51:19.814Z,26.97
2019-06-04T09:53:51.147Z,27.00
2019-06-04T09:56:22.282Z,27.24
2019-06-04T09:58:53.504Z,27.30
2019-06-04T10:01:24.822Z,27.41
2019-06-04T10:03:56.165Z,27.35
2019-06-04T10:06:27.471Z,27.16
2019-06-04T10:08:58.717Z,26.89
2019-06-04T10:11:30.004Z,26.89
2019-06-04T10:14:01.326Z,26.85
2019-06-04T10:16:32.573Z,26.62
2019-06-04T10:19:03.806Z,27.08
2019-06-04T10:21:35.006Z,27.03
2019-06-04T10:24:06.536Z,26.80
2019-06-04T10:26:37.739Z,26.91
2019-06-04T10:29:09.659Z,27.17
2019-06-04T10:31:41.068Z,27.22
2019-06-04T10:34:12.188Z,27.45
2019-06-04T10:36:44.577Z,27.02
2019-06-04T10:39:16.137Z,27.12
2019-06-04T10:41:47.347Z,27.37
2019-06-04T10:44:18.517Z,27.57
2019-06-04T10:46:51.852Z,27.74
2019-06-04T10:49:24.323Z,27.44
2019-06-04T10:51:55.815Z,27.03
2019-06-04T10:54:27.103Z,26.96
2019-06-04T10:56:58.457Z,26.92
2019-06-04T10:59:29.752Z,27.12
2019-06-04T11:02:01.108Z,27.10
2019-06-04T11:04:32.278Z,27.48
2019-06-04T11:07:04.321Z,27.15
2019-06-04T11:09:35.637Z,27.16
2019-06-04T11:12:06.865Z,27.26
2019-06-04T11:14:38.100Z,26.84
2019-06-04T11:17:09.927Z,27.07
2019-06-04T11:19:41.163Z,27.39
2019-06-04T11:22:12.362Z,27.56
2019-06-04T11:24:43.653Z,27.77
2019-06-04T11:27:14.926Z,27.64
2019-06-04T11:29:46.092Z,28.04
2019-06-04T11:32:17.334Z,27.91
2019-06-04T11:34:49.544Z,27.54
2019-06-04T11:37:20.858Z,27.31
2019-06-04T11:39:52.427Z,27.59
2019-06-04T11:42:23.582Z,27.76
2019-06-04T11:45:09.181Z,27.83
2019-06-04T11:47:27.848Z,27.33
2019-06-04T11:49:59.829Z,27.70
2019-06-04T11:52:31.070Z,27.88
2019-06-04T11:55:02.695Z,27.93
2019-06-04T11:57:34.705Z,27.98
2019-06-04T12:00:08.066Z,27.92
2019-06-04T12:02:39.403Z,27.73
2019-06-04T12:05:10.688Z,27.56
2019-06-04T12:07:41.853Z,27.49
2019-06-04T12:10:16.108Z,27.69
2019-06-04T12:12:46.075Z,27.96
2019-06-04T12:15:17.538Z,28.32
2019-06-04T12:17:48.768Z,28.15
2019-06-04T12:20:20.084Z,28.41
2019-06-04T12:23:24.605Z,28.18
2019-06-04T12:25:24.226Z,28.50
2019-06-04T12:27:57.740Z,28.30
2019-06-04T12:30:29.874Z,28.23
2019-06-04T12:33:02.993Z,28.23
2019-06-04T12:35:35.056Z,28.12
2019-06-04T12:38:09.521Z,28.16
2019-06-04T12:40:40.260Z,28.20
2019-06-04T12:43:11.757Z,28.16
2019-06-04T12:45:47.030Z,28.24
2019-06-04T12:48:15.970Z,28.10
2019-06-04T12:50:47.229Z,27.86
2019-06-04T12:53:18.938Z,28.38
2019-06-04T12:55:50.513Z,28.34
2019-06-04T12:58:23.531Z,28.54
2019-06-04T13:00:55.876Z,28.50
2019-06-04T13:03:28.737Z,28.90
2019-06-04T13:06:02.741Z,28.83
2019-06-04T13:08:34.605Z,28.72
2019-06-04T13:11:07.200Z,28.56
2019-06-04T13:13:39.908Z,28.51
2019-06-04T13:16:11.667Z,28.43
2019-06-04T13:18:42.966Z,28.16
2019-06-04T13:21:15.241Z,28.36
2019-06-04T13:23:47.202Z,28.53
2019-06-04T13:26:18.393Z,28.56
2019-06-04T13:28:49.682Z,28.75
2019-06-04T13:31:20.966Z,28.16
2019-06-04T13:33:53.217Z,28.32
2019-06-04T13:36:24.476Z,28.55
2019-06-04T13:38:55.703Z,28.28
2019-06-04T13:41:26.905Z,28.18
2019-06-04T13:43:58.112Z,28.44
2019-06-04T13:46:29.497Z,28.55
2019-06-04T13:49:01.559Z,28.79
2019-06-04T13:51:32.753Z,28.44
2019-06-04T13:54:03.933Z,28.36
2019-06-04T13:56:35.101Z,28.26
2019-06-04T13:59:06.517Z,27.99
2019-06-04T14:01:37.752Z,28.04
2019-06-04T14:04:11.046Z,28.24
2019-06-04T14:06:42.124Z,28.03
2019-06-04T14:09:16.705Z,28.39
2019-06-04T14:11:46.043Z,28.65
2019-06-04T14:14:29.862Z,28.66
2019-06-04T14:16:50.121Z,28.61
2019-06-04T14:19:21.356Z,28.55
2019-06-04T14:21:52.549Z,28.31
2019-06-04T14:24:23.624Z,28.48
2019-06-04T14:26:54.932Z,28.74
2019-06-04T14:29:26.163Z,28.69
2019-06-04T14:31:57.318Z,28.51
2019-06-04T14:34:28.517Z,28.86
2019-06-04T14:36:59.775Z,28.76
2019-06-04T14:39:31.007Z,28.79
2019-06-04T14:42:02.078Z,28.32
2019-06-04T14:44:33.265Z,28.49
2019-06-04T14:47:04.457Z,28.39
2019-06-04T14:49:35.642Z,28.29
2019-06-04T14:52:08.072Z,28.29
2019-06-04T14:54:39.303Z,28.51
2019-06-04T14:57:10.545Z,28.25
2019-06-04T14:59:41.714Z,28.14
2019-06-04T15:02:14.541Z,28.10
2019-06-04T15:04:45.830Z,28.25
2019-06-04T15:07:21.768Z,28.40
2019-06-04T15:09:49.955Z,28.31
2019-06-04T15:12:21.261Z,28.25
2019-06-04T15:14:52.522Z,28.31
2019-06-04T15:17:23.732Z,28.49
2019-06-04T15:19:54.979Z,28.53
2019-06-04T15:22:26.256Z,28.21
2019-06-04T15:24:57.338Z,28.36
2019-06-04T15:27:28.406Z,28.10
2019-06-04T15:30:02.516Z,27.97
2019-06-04T15:32:33.065Z,28.48
2019-06-04T15:35:05.077Z,28.58
2019-06-04T15:37:36.154Z,28.60
2019-06-04T15:40:08.101Z,28.78
2019-06-04T15:42:39.331Z,28.59
2019-06-04T15:45:10.585Z,28.65
2019-06-04T15:47:41.743Z,28.45
2019-06-04T15:50:13.574Z,28.62
2019-06-04T15:52:52.043Z,27.94
2019-06-04T15:55:18.524Z,27.84
2019-06-04T15:57:49.907Z,27.83
2019-06-04T16:00:21.752Z,27.86
2019-06-04T16:02:53.643Z,28.27
2019-06-04T16:05:24.881Z,28.33
2019-06-04T16:07:56.204Z,27.84
2019-06-04T16:10:30.287Z,28.07
2019-06-04T16:13:00.236Z,28.11
2019-06-04T16:15:31.483Z,28.57
2019-06-04T16:18:02.555Z,28.58
2019-06-04T16:20:37.608Z,28.25
2019-06-04T16:23:08.948Z,28.22
2019-06-04T16:25:40.089Z,28.22
2019-06-04T16:28:14.624Z,28.49
2019-06-04T16:30:45.386Z,28.38
2019-06-04T16:33:18.877Z,28.19
2019-06-04T16:35:50.439Z,28.08
2019-06-04T16:38:26.912Z,28.23
2019-06-04T16:40:54.585Z,28.22
2019-06-04T16:43:27.046Z,28.08
2019-06-04T16:45:58.727Z,28.10
2019-06-04T16:48:30.912Z,28.05
2019-06-04T16:51:02.327Z,28.05
2019-06-04T16:53:33.544Z,28.00
2019-06-04T16:56:04.787Z,27.82
2019-06-04T16:58:36.030Z,27.87
2019-06-04T17:01:07.374Z,27.75
2019-06-04T17:03:38.605Z,28.05
2019-06-04T17:06:09.868Z,28.03
2019-06-04T17:08:44.371Z,27.86
2019-06-04T17:11:14.321Z,28.19
2019-06-04T17:13:45.510Z,27.92
2019-06-04T17:16:17.239Z,27.93
2019-06-04T17:18:48.655Z,27.80
2019-06-04T17:21:21.018Z,27.76
2019-06-04T17:23:52.527Z,27.89
2019-06-04T17:26:24.721Z,27.90
2019-06-04T17:28:56.563Z,27.66
2019-06-04T17:31:28.079Z,27.93
2019-06-04T17:33:59.383Z,27.71
2019-06-04T17:36:30.800Z,27.83
2019-06-04T17:39:01.900Z,27.64
2019-06-04T17:41:34.865Z,27.63
2019-06-04T17:44:06.078Z,27.54
2019-06-04T17:46:37.152Z,27.46
2019-06-04T17:49:08.402Z,27.66
2019-06-04T17:51:39.580Z,27.49
2019-06-04T17:54:10.722Z,27.48
2019-06-04T17:56:41.897Z,27.43
2019-06-04T17:59:13.112Z,27.24
2019-06-04T18:01:44.446Z,27.21
2019-06-04T18:04:15.643Z,27.00
2019-06-04T18:06:46.786Z,26.76
2019-06-04T18:09:17.858Z,26.79
2019-06-04T18:11:48.941Z,26.68
2019-06-04T18:14:20.033Z,26.65
2019-06-04T18:16:51.239Z,26.59
2019-06-04T18:19:22.321Z,26.59
2019-06-04T18:21:53.499Z,26.54
2019-06-04T18:24:24.585Z,26.65
2019-06-04T18:26:57.983Z,26.49
2019-06-04T18:29:29.467Z,26.49
2019-06-04T18:32:00.674Z,26.52
2019-06-04T18:34:32.962Z,26.30
2019-06-04T18:37:04.171Z,26.26
2019-06-04T18:39:36.548Z,26.13
2019-06-04T18:42:07.861Z,25.99
2019-06-04T18:44:38.998Z,25.90
2019-06-04T18:47:10.214Z,25.75
2019-06-04T18:49:43.218Z,25.72
2019-06-04T18:52:14.391Z,25.72
2019-06-04T18:54:45.713Z,25.66
2019-06-04T18:57:16.949Z,25.71
2019-06-04T18:59:48.226Z,25.86
2019-06-04T19:02:19.583Z,25.59
2019-06-04T19:04:50.789Z,25.59
2019-06-04T19:07:21.982Z,25.54
2019-06-04T19:09:53.541Z,25.53
2019-06-04T19:12:24.599Z,25.40
2019-06-04T19:14:55.825Z,25.27
2019-06-04T19:17:27.152Z,25.31
2019-06-04T19:19:58.286Z,25.20
2019-06-04T19:22:29.471Z,25.10
2019-06-04T19:25:00.622Z,25.07
2019-06-04T19:27:33.119Z,25.09
2019-06-04T19:30:04.979Z,24.99
2019-06-04T19:32:39.442Z,24.89
2019-06-04T19:35:09.819Z,24.90
2019-06-04T19:37:41.354Z,24.81
2019-06-04T19:40:13.680Z,24.73
2019-06-04T19:42:45.224Z,24.65
2019-06-04T19:45:17.569Z,24.61
2019-06-04T19:47:48.893Z,24.42
2019-06-04T19:50:20.157Z,24.47
2019-06-04T19:52:51.427Z,24.45
2019-06-04T19:55:22.564Z,24.41
2019-06-04T19:57:53.821Z,24.30
2019-06-04T20:00:25.635Z,24.26
2019-06-04T20:02:56.870Z,24.26
2019-06-04T20:05:44.149Z,24.22
2019-06-04T20:08:00.879Z,24.07
2019-06-04T20:10:32.106Z,23.93
2019-06-04T20:13:03.401Z,23.78
2019-06-04T20:15:34.534Z,23.79
2019-06-04T20:18:05.908Z,23.68
2019-06-04T20:20:37.354Z,23.70
2019-06-04T20:23:08.620Z,23.81
2019-06-04T20:25:40.032Z,23.75
2019-06-04T20:28:11.135Z,23.77
2019-06-04T20:30:42.867Z,23.65
2019-06-04T20:33:14.111Z,23.46
2019-06-04T20:35:45.539Z,23.42
2019-06-04T20:38:16.830Z,23.28
2019-06-04T20:40:47.971Z,23.19
2019-06-04T20:43:19.197Z,23.22
2019-06-04T20:45:50.481Z,23.20
2019-06-04T20:48:22.843Z,23.10
2019-06-04T20:50:54.090Z,23.13
2019-06-04T20:53:25.265Z,23.17
2019-06-04T20:55:56.463Z,23.28
2019-06-04T20:58:27.596Z,23.34
2019-06-04T21:00:58.870Z,23.25
2019-06-04T21:03:30.120Z,23.29
2019-06-04T21:06:01.381Z,23.24
2019-06-04T21:08:32.544Z,23.16
2019-06-04T21:11:04.047Z,23.31
2019-06-04T21:13:35.405Z,22.93
2019-06-04T21:16:06.806Z,22.87
2019-06-04T21:18:37.964Z,22.75
2019-06-04T21:21:09.225Z,22.95
2019-06-04T21:23:40.388Z,22.79
2019-06-04T21:26:11.766Z,22.89
2019-06-04T21:28:43.444Z,22.58
2019-06-04T21:31:14.622Z,22.66
2019-06-04T21:33:45.864Z,22.69
2019-06-04T21:36:17.109Z,22.79
2019-06-04T21:38:48.421Z,22.64
2019-06-04T21:41:19.585Z,22.57
2019-06-04T21:43:51.018Z,22.61
2019-06-04T21:46:22.356Z,22.52
2019-06-04T21:48:53.564Z,22.42
2019-06-04T21:51:25.024Z,22.52
2019-06-04T21:53:56.391Z,22.44
2019-06-04T21:56:27.634Z,22.15
2019-06-04T21:58:58.983Z,22.22
2019-06-04T22:01:30.222Z,22.36
2019-06-04T22:04:01.741Z,22.06
2019-06-04T22:06:32.969Z,21.98
2019-06-04T22:09:08.081Z,21.98
2019-06-04T22:11:39.236Z,21.84
2019-06-04T22:14:10.419Z,21.85
2019-06-04T22:16:41.658Z,21.71
2019-06-04T22:19:12.834Z,21.57
2019-06-04T22:21:44.068Z,21.56
2019-06-04T22:24:15.369Z,21.50
2019-06-04T22:26:47.943Z,21.46
2019-06-04T22:29:19.405Z,21.49
2019-06-04T22:31:52.924Z,21.45
2019-06-04T22:34:24.327Z,21.79
2019-06-04T22:36:55.498Z,21.81
2019-06-04T22:39:27.997Z,21.74
2019-06-04T22:41:59.483Z,21.83
2019-06-04T22:44:30.826Z,21.89
2019-06-04T22:47:01.903Z,21.87
2019-06-04T22:49:33.087Z,21.82
2019-06-04T22:52:04.428Z,21.64
2019-06-04T22:54:35.517Z,21.75
2019-06-04T22:57:06.733Z,21.48
2019-06-04T22:59:38.090Z,21.17
2019-06-04T23:02:09.211Z,21.25
2019-06-04T23:04:40.442Z,21.39
2019-06-04T23:07:11.674Z,21.24
2019-06-04T23:09:42.762Z,20.92
2019-06-04T23:12:13.835Z,21.27
2019-06-04T23:14:45.649Z,21.35
2019-06-04T23:17:16.879Z,21.41
2019-06-04T23:19:48.011Z,21.39
2019-06-04T23:22:19.219Z,21.51
2019-06-04T23:24:50.446Z,21.25
2019-06-04T23:27:21.689Z,21.31
2019-06-04T23:29:54.136Z,21.13
2019-06-04T23:32:25.822Z,21.25
2019-06-04T23:34:57.154Z,21.22
2019-06-04T23:37:28.309Z,20.90
2019-06-04T23:40:01.306Z,20.59
2019-06-04T23:42:33.808Z,20.34
2019-06-04T23:45:06.223Z,20.42
2019-06-04T23:47:37.544Z,20.45
2019-06-04T23:50:09.730Z,20.59
2019-06-04T23:52:41.085Z,20.73
2019-06-04T23:55:14.150Z,20.77
2019-06-04T23:57:45.226Z,20.76
